Time;durP1;ratioP1;P1;durP2;ratioP2;P2;SDS_P1;SDS_P2;PMS_P1;PMS_P2;Temp;Humidity;BMP_temperature;BMP_pressure;BME280_temperature;BME280_humidity;BME280_pressure;Samples;Min_cycle;Max_cycle;Signal;HPM_P1;HPM_P2
2023/01/01 00:00:52;;;;;;;5.90;3.50;;;;;;;16.84;91.02;99782.75;649719;1297;139563;-80
2023/01/01 00:16:15;;;;;;;5.50;3.40;;;;;;;16.78;90.82;99793.80;652429;1301;140680;-81
2023/01/01 00:31:21;;;;;;;6.90;4.00;;;;;;;16.82;90.05;99790.63;651578;1301;138418;-80
2023/01/01 00:46:24;;;;;;;11.60;4.70;;;;;;;16.83;89.54;99784.61;646972;1307;139644;-80
2023/01/01 01:01:27;;;;;;;6.70;4.10;;;;;;;16.54;90.16;99808.36;648689;1297;138919;-82
2023/01/01 01:16:34;;;;;;;19.70;10.10;;;;;;;16.52;90.11;99808.87;651621;1307;138887;-80
2023/01/01 01:31:37;;;;;;;8.30;4.40;;;;;;;16.49;89.66;99809.08;651363;1301;138848;-81
2023/01/01 01:46:44;;;;;;;11.60;5.30;;;;;;;16.19;90.40;99809.52;649006;1306;138384;-80
2023/01/01 02:01:47;;;;;;;9.70;5.20;;;;;;;16.04;91.00;99815.79;648146;1308;139027;-80
2023/01/01 02:17:06;;;;;;;7.90;4.50;;;;;;;15.78;92.19;99833.17;648061;1301;138673;-79
2023/01/01 02:32:14;;;;;;;6.30;3.80;;;;;;;15.63;93.19;99835.98;654907;1304;138627;-80
2023/01/01 02:47:20;;;;;;;10.30;4.50;;;;;;;15.76;92.32;99828.59;652889;1298;140242;-81
2023/01/01 03:02:26;;;;;;;8.20;4.40;;;;;;;16.02;89.89;99829.31;655436;1301;139218;-80
2023/01/01 03:17:40;;;;;;;7.50;4.10;;;;;;;16.16;87.82;99809.23;652897;1315;139316;-81
2023/01/01 03:32:59;;;;;;;9.70;3.80;;;;;;;16.18;86.38;99828.81;653864;1299;138579;-80
2023/01/01 03:48:04;;;;;;;;;;;;;;;16.17;84.88;99831.39;652949;1316;138534;-81
2023/01/01 04:03:14;;;;;;;7.40;3.60;;;;;;;16.29;83.18;99833.73;650490;1307;126095;-81
2023/01/01 04:18:18;;;;;;;7.40;3.60;;;;;;;16.32;81.59;99837.74;650780;1316;140215;-81
2023/01/01 04:33:21;;;;;;;7.20;3.20;;;;;;;16.26;80.94;99856.55;651064;1313;140258;-82
2023/01/01 04:48:26;;;;;;;8.70;3.80;;;;;;;16.09;80.51;99862.20;649716;1308;138647;-82
2023/01/01 05:03:29;;;;;;;7.90;3.80;;;;;;;16.07;80.34;99879.73;655886;1301;140893;-82
2023/01/01 05:18:34;;;;;;;9.90;4.10;;;;;;;15.93;80.19;99905.08;655840;1297;140037;-81
2023/01/01 05:33:37;;;;;;;9.60;3.80;;;;;;;16.26;78.01;99903.41;656160;1294;140297;-80
2023/01/01 05:48:41;;;;;;;7.50;3.80;;;;;;;16.19;77.18;99911.98;649966;1293;140270;-82
2023/01/01 06:03:49;;;;;;;6.80;3.60;;;;;;;16.08;77.13;99924.73;649669;1311;138601;-81
2023/01/01 06:18:52;;;;;;;5.20;3.60;;;;;;;16.08;76.29;99925.98;650953;1292;137991;-81
2023/01/01 06:33:56;;;;;;;7.70;3.30;;;;;;;16.11;75.47;99946.67;652034;1308;139105;-81
2023/01/01 06:49:03;;;;;;;6.20;3.20;;;;;;;16.09;75.10;99961.72;652269;1314;138217;-80
2023/01/01 07:04:11;;;;;;;8.40;5.00;;;;;;;16.12;74.28;99967.88;649622;1291;139320;-81
2023/01/01 07:19:14;;;;;;;6.60;3.00;;;;;;;16.24;73.46;99965.92;646658;1307;143056;-81
2023/01/01 07:34:22;;;;;;;6.50;3.90;;;;;;;16.31;72.34;99993.31;650316;1306;139432;-82
2023/01/01 07:49:25;;;;;;;6.30;3.40;;;;;;;16.40;71.16;100010.67;649610;1315;138458;-83
2023/01/01 08:04:29;;;;;;;8.40;4.10;;;;;;;16.79;70.09;100024.77;651149;1300;138571;-81
2023/01/01 08:19:32;;;;;;;10.00;5.10;;;;;;;16.83;69.34;100032.66;657287;1299;138633;-81
2023/01/01 08:34:45;;;;;;;10.00;4.50;;;;;;;16.79;69.45;100048.69;648430;1309;140307;-82
2023/01/01 08:49:49;;;;;;;9.40;4.30;;;;;;;16.79;69.54;100058.48;652550;1308;157174;-82
2023/01/01 09:04:52;;;;;;;9.10;4.90;;;;;;;16.88;69.16;100066.13;652339;1304;140814;-82
2023/01/01 09:19:55;;;;;;;11.70;4.90;;;;;;;17.27;68.18;100058.50;650482;1308;138955;-81
2023/01/01 09:34:59;;;;;;;14.60;5.70;;;;;;;17.37;67.50;100066.89;647683;1311;138717;-82
2023/01/01 09:50:19;;;;;;;13.50;5.00;;;;;;;17.64;65.91;100061.09;650431;1296;138341;-82
2023/01/01 10:25:21;;;;;;;16.90;8.50;;;;;;;18.34;61.94;100078.14;637314;1343;545022;-82
2023/01/01 10:40:27;;;;;;;10.60;5.00;;;;;;;18.45;61.65;100081.09;650176;1322;139291;-81
2023/01/01 10:55:30;;;;;;;25.50;15.00;;;;;;;17.98;62.66;100091.92;649781;1312;138871;-83
2023/01/01 11:10:34;;;;;;;11.60;5.20;;;;;;;17.82;63.05;100095.21;652669;1307;138131;-82
2023/01/01 11:25:37;;;;;;;9.60;4.60;;;;;;;17.74;63.42;100086.60;651432;1315;137456;-83
2023/01/01 11:40:46;;;;;;;11.60;4.40;;;;;;;17.69;63.35;100085.96;648520;1320;138843;-82
2023/01/01 11:55:59;;;;;;;15.90;7.20;;;;;;;17.65;63.72;100097.34;647657;1317;138877;-81
2023/01/01 12:11:43;;;;;;;13.70;6.10;;;;;;;17.56;64.17;100110.86;648824;1307;138192;-84
2023/01/01 12:27:14;;;;;;;19.00;9.50;;;;;;;17.52;64.39;100115.42;647441;1306;139309;-82
2023/01/01 12:42:32;;;;;;;26.50;8.90;;;;;;;17.44;64.87;100129.68;647263;1318;138465;-82
2023/01/01 12:57:45;;;;;;;19.40;8.30;;;;;;;17.34;65.31;100154.39;648525;1316;139140;-83
2023/01/01 13:12:50;;;;;;;18.30;7.20;;;;;;;17.25;65.78;100165.81;645294;1307;140048;-82
2023/01/01 13:43:01;;;;;;;39.30;16.60;;;;;;;17.19;65.62;100185.15;648463;1308;137996;-83
2023/01/01 13:58:28;;;;;;;18.30;7.20;;;;;;;17.14;65.89;100217.64;646869;1316;139683;-81
2023/01/01 14:13:39;;;;;;;42.40;18.10;;;;;;;17.03;66.29;100243.96;646888;1311;138498;-82
2023/01/01 14:28:43;;;;;;;48.60;18.40;;;;;;;16.91;66.94;100265.02;646164;1308;139867;-83
2023/01/01 14:43:49;;;;;;;32.50;12.90;;;;;;;16.72;67.83;100270.46;651202;1298;139879;-83
2023/01/01 14:59:05;;;;;;;19.80;8.30;;;;;;;16.47;68.61;100276.11;649149;1303;141428;-82
2023/01/01 15:14:27;;;;;;;14.00;6.80;;;;;;;16.30;69.11;100291.19;652487;1304;138594;-83
2023/01/01 15:29:46;;;;;;;14.90;8.00;;;;;;;16.16;70.05;100349.17;655367;1310;139120;-82
2023/01/01 15:44:49;;;;;;;41.40;15.20;;;;;;;16.02;70.51;100389.25;654218;1305;139827;-82
2023/01/01 15:59:54;;;;;;;21.50;9.00;;;;;;;15.75;71.54;100403.13;653492;1296;139337;-82
2023/01/01 16:14:57;;;;;;;17.30;7.50;;;;;;;15.53;72.66;100424.48;657140;1304;141295;-83
2023/01/01 16:30:00;;;;;;;37.80;27.10;;;;;;;15.34;73.17;100442.55;653296;1304;141413;-83
2023/01/01 16:45:16;;;;;;;38.90;27.20;;;;;;;15.16;74.14;100453.48;652164;1294;139053;-83
2023/01/01 17:00:20;;;;;;;24.10;14.90;;;;;;;15.29;73.55;100467.01;652714;1294;139295;-84
2023/01/01 17:15:25;;;;;;;20.60;10.70;;;;;;;15.11;74.02;100476.71;651615;1311;139271;-82
2023/01/01 17:30:28;;;;;;;22.70;11.90;;;;;;;14.87;74.36;100493.38;653367;1298;141194;-84
2023/01/01 17:45:35;;;;;;;16.70;8.10;;;;;;;14.58;75.65;100503.20;653336;1289;139880;-82
2023/01/01 18:00:38;;;;;;;27.80;13.70;;;;;;;14.38;77.01;100526.81;656264;1285;139817;-84
2023/01/01 18:15:42;;;;;;;53.10;23.50;;;;;;;14.38;77.12;100548.58;655326;1289;141532;-82
2023/01/01 18:30:45;;;;;;;484.40;224.70;;;;;;;14.44;76.78;100580.04;652077;1280;140032;-82
2023/01/01 18:45:48;;;;;;;22.00;10.70;;;;;;;14.31;77.02;100605.83;654837;1304;141081;-83
2023/01/01 19:00:52;;;;;;;28.20;14.50;;;;;;;14.09;77.25;100605.79;654294;1297;140995;-82
2023/01/01 19:16:01;;;;;;;41.60;19.30;;;;;;;13.83;78.30;100605.42;656075;1298;139668;-82
2023/01/01 19:31:08;;;;;;;23.90;11.10;;;;;;;13.67;78.84;100610.92;655477;1297;139734;-84
2023/01/01 19:46:12;;;;;;;36.50;18.40;;;;;;;13.71;78.71;100627.05;654200;1300;140166;-82
2023/01/01 20:01:16;;;;;;;38.30;20.60;;;;;;;13.80;78.81;100650.46;652965;1298;138682;-82
2023/01/01 20:16:19;;;;;;;15.50;8.00;;;;;;;13.85;78.83;100660.79;653037;1295;140109;-81
2023/01/01 20:31:23;;;;;;;18.60;10.30;;;;;;;13.83;79.51;100683.45;654197;1296;139259;-81
2023/01/01 20:46:28;;;;;;;18.40;11.20;;;;;;;13.80;79.64;100685.43;653844;1296;140147;-82
2023/01/01 21:01:32;;;;;;;17.10;9.20;;;;;;;13.73;80.40;100695.63;652917;1291;141128;-83
2023/01/01 21:16:41;;;;;;;22.20;11.60;;;;;;;13.67;80.68;100710.80;655370;1297;140651;-83
2023/01/01 21:31:45;;;;;;;;;;;;;;;13.57;81.52;100725.42;652501;1295;139500;-82
2023/01/01 21:46:51;;;;;;;21.80;10.50;;;;;;;13.43;82.33;100741.50;653303;1300;126775;-81
2023/01/01 22:02:04;;;;;;;31.40;12.50;;;;;;;13.42;82.79;100742.23;652983;1310;140655;-83
2023/01/01 22:17:21;;;;;;;22.00;9.90;;;;;;;13.40;82.77;100723.09;653133;1297;140062;-82
2023/01/01 22:32:27;;;;;;;25.00;9.90;;;;;;;13.34;82.63;100723.42;652466;1306;218890;-83
2023/01/01 22:47:35;;;;;;;26.30;13.60;;;;;;;13.27;82.59;100724.80;652865;1305;139686;-83
2023/01/01 23:02:38;;;;;;;31.10;12.20;;;;;;;13.18;83.09;100717.38;651389;1305;139056;-83
2023/01/01 23:17:41;;;;;;;22.60;8.20;;;;;;;13.27;83.20;100713.76;653016;1297;140205;-81
2023/01/01 23:32:45;;;;;;;19.40;10.50;;;;;;;13.25;82.90;100705.03;653183;1304;140686;-83
2023/01/01 23:47:48;;;;;;;40.00;18.20;;;;;;;13.13;83.70;100709.20;654805;1289;140130;-82
